Terminal Aerodrome Forecast
Issued by NWS

Home | Current Version | Previous Version | Text Only | Print | Product List | Glossary On
Versions: 1 2 3 4 5 6 7 8 9 10 11 12
000
FTUS45 KRIW 162300
TAFCPR
TAF
KCPR 162329Z 1700/1724 VRB05KT P6SM VCSH BKN080
     FM170200 22010KT P6SM BKN060
     FM171200 21015KT P6SM FEW060=

USA.gov is the U.S. government's official web portal to all federal, state and local government web resources and services.